createdAt,value
2023-02-19T00:02:36.157Z,4.1
2023-02-19T00:05:36.153Z,4.4
2023-02-19T00:08:36.156Z,4.5
2023-02-19T00:11:36.162Z,4.1
2023-02-19T00:14:36.162Z,4.4
2023-02-19T00:17:36.220Z,3.9
2023-02-19T00:20:36.171Z,3.9
2023-02-19T00:23:36.179Z,4
2023-02-19T00:26:36.221Z,4
2023-02-19T00:29:36.190Z,3.6
2023-02-19T00:32:36.205Z,3.7
2023-02-19T00:35:36.226Z,3.8
2023-02-19T00:38:36.204Z,3.8
2023-02-19T00:41:36.207Z,3.9
2023-02-19T00:44:36.215Z,3.9
2023-02-19T00:47:36.225Z,3.8
2023-02-19T00:50:36.228Z,4
2023-02-19T00:53:36.257Z,4
2023-02-19T00:56:36.232Z,3.8
2023-02-19T00:59:36.241Z,3.9
2023-02-19T01:02:36.251Z,4.1
2023-02-19T01:05:36.245Z,4
2023-02-19T01:08:36.254Z,3.7
2023-02-19T01:11:36.282Z,3.7
2023-02-19T01:14:36.259Z,3.4
2023-02-19T01:17:36.272Z,3.5
2023-02-19T01:20:36.271Z,3.2
2023-02-19T01:23:36.284Z,3.3
2023-02-19T01:26:36.283Z,3.5
2023-02-19T01:29:36.314Z,3.5
2023-02-19T01:32:36.306Z,3.6
2023-02-19T01:35:36.296Z,3.5
2023-02-19T01:38:36.299Z,3.9
2023-02-19T01:41:36.478Z,3.8
2023-02-19T01:44:36.310Z,4
2023-02-19T01:47:36.346Z,3.8
2023-02-19T01:50:36.354Z,3.9
2023-02-19T01:53:36.319Z,4.7
2023-02-19T01:56:36.328Z,3.7
2023-02-19T01:59:36.329Z,3.7
2023-02-19T02:02:36.341Z,3.7
2023-02-19T02:05:36.368Z,3.7
2023-02-19T02:08:36.348Z,3.8
2023-02-19T02:11:36.351Z,3.8
2023-02-19T02:14:36.372Z,4
2023-02-19T02:17:36.365Z,3.5
2023-02-19T02:20:36.364Z,3.9
2023-02-19T02:23:36.405Z,3.9
2023-02-19T02:26:36.377Z,3.7
2023-02-19T02:29:36.375Z,3.9
2023-02-19T02:32:36.411Z,3.6
2023-02-19T02:35:36.393Z,3.9
2023-02-19T02:38:36.398Z,3.7
2023-02-19T02:41:36.400Z,3.8
2023-02-19T02:44:36.413Z,3.9
2023-02-19T02:47:36.418Z,3.7
2023-02-19T02:50:36.410Z,3.9
2023-02-19T02:53:36.414Z,3.8
2023-02-19T02:56:36.425Z,3.9
2023-02-19T02:59:36.430Z,4.5
2023-02-19T03:02:36.441Z,4.5
2023-02-19T03:05:36.435Z,4.6
2023-02-19T03:08:36.441Z,4.1
2023-02-19T03:11:36.443Z,4
2023-02-19T03:14:36.444Z,4.4
2023-02-19T03:17:36.470Z,4.8
2023-02-19T03:20:36.450Z,4.8
2023-02-19T03:23:36.458Z,4.7
2023-02-19T03:26:36.464Z,4.7
2023-02-19T03:29:36.464Z,4.8
2023-02-19T03:32:36.485Z,4.2
2023-02-19T03:35:36.473Z,4.1
2023-02-19T03:38:36.477Z,4
2023-02-19T03:41:36.486Z,4.5
2023-02-19T03:44:36.484Z,4.8
2023-02-19T03:47:36.499Z,5
2023-02-19T03:50:36.493Z,5.2
2023-02-19T03:53:36.499Z,5.7
2023-02-19T03:56:36.506Z,6.4
2023-02-19T03:59:36.514Z,6.6
2023-02-19T04:02:36.521Z,6.6
2023-02-19T04:05:36.511Z,6.7
2023-02-19T04:08:36.519Z,6.4
2023-02-19T04:11:36.533Z,6.7
2023-02-19T04:14:36.533Z,7.3
2023-02-19T04:17:36.543Z,7.1
2023-02-19T04:20:36.535Z,6.9
2023-02-19T04:23:36.544Z,7.2
2023-02-19T04:26:36.543Z,7.3
2023-02-19T04:29:38.883Z,7.3
2023-02-19T04:32:36.560Z,6.6
2023-02-19T04:35:36.550Z,6.1
2023-02-19T04:38:36.550Z,5.5
2023-02-19T04:41:36.558Z,5.2
2023-02-19T04:44:36.569Z,4.3
2023-02-19T04:47:36.587Z,3
2023-02-19T04:50:36.569Z,2.7
2023-02-19T04:53:36.585Z,3
2023-02-19T04:56:36.582Z,2.7
2023-02-19T04:59:36.594Z,3.1
2023-02-19T05:02:36.604Z,3.3
2023-02-19T05:05:36.594Z,3.3
2023-02-19T05:08:36.607Z,3.3
2023-02-19T05:11:36.602Z,3.3
2023-02-19T05:14:36.605Z,3.4
2023-02-19T05:17:36.615Z,3.9
2023-02-19T05:20:36.621Z,3.8
2023-02-19T05:23:36.617Z,4.1
2023-02-19T05:26:36.626Z,4.6
2023-02-19T05:29:36.642Z,4.3
2023-02-19T05:32:36.640Z,4.7
2023-02-19T05:35:36.634Z,4.5
2023-02-19T05:38:36.641Z,4.8
2023-02-19T05:41:36.647Z,4.9
2023-02-19T05:44:36.647Z,4.9
2023-02-19T05:47:36.667Z,5.3
2023-02-19T05:50:38.231Z,5.4
2023-02-19T05:53:36.661Z,5.7
2023-02-19T05:56:36.664Z,5.3
2023-02-19T05:59:36.670Z,5.6
2023-02-19T06:02:36.693Z,5.4
2023-02-19T06:05:36.678Z,5.9
2023-02-19T06:08:36.688Z,6.8
2023-02-19T06:11:36.695Z,6.9
2023-02-19T06:14:36.691Z,7.4
2023-02-19T06:17:36.709Z,8.4
2023-02-19T06:20:36.702Z,9
2023-02-19T06:23:36.699Z,8.6
2023-02-19T06:26:36.701Z,8.1
2023-02-19T06:29:36.712Z,8.3
2023-02-19T06:32:36.725Z,7.6
2023-02-19T06:35:36.721Z,6.4
2023-02-19T06:38:36.727Z,5
2023-02-19T06:41:36.724Z,4.6
2023-02-19T06:44:36.733Z,4.8
2023-02-19T06:47:36.754Z,5
2023-02-19T06:50:36.742Z,5.3
2023-02-19T06:53:36.738Z,5.2
2023-02-19T06:56:36.739Z,5.6
2023-02-19T06:59:36.744Z,5.3
2023-02-19T07:02:36.799Z,5.5
2023-02-19T07:05:36.747Z,5.4
2023-02-19T07:08:36.742Z,5.6
2023-02-19T07:11:36.748Z,5.1
2023-02-19T07:14:36.749Z,5.3
2023-02-19T07:17:36.761Z,5
2023-02-19T07:20:36.752Z,5.3
2023-02-19T07:23:36.754Z,5.3
2023-02-19T07:26:36.756Z,5.3
2023-02-19T07:29:36.755Z,4.9
2023-02-19T07:32:36.772Z,4.9
2023-02-19T07:35:36.762Z,4.9
2023-02-19T07:38:36.760Z,4.4
2023-02-19T07:41:36.764Z,4
2023-02-19T07:44:36.763Z,3.9
2023-02-19T07:47:36.776Z,4.3
2023-02-19T07:50:36.765Z,4.5
2023-02-19T07:53:36.780Z,4.9
2023-02-19T07:56:36.780Z,4.7
2023-02-19T07:59:36.805Z,4.8
2023-02-19T08:02:36.824Z,4.8
2023-02-19T08:05:36.830Z,4.8
2023-02-19T08:08:36.837Z,5.1
2023-02-19T08:11:36.842Z,4.6
2023-02-19T08:14:36.854Z,4.9
2023-02-19T08:17:36.870Z,4.9
2023-02-19T08:20:36.870Z,4.6
2023-02-19T08:23:36.888Z,5
2023-02-19T08:26:36.883Z,4.8
2023-02-19T08:29:36.889Z,4.8
2023-02-19T08:32:36.906Z,4.5
2023-02-19T08:35:36.918Z,4.3
2023-02-19T08:38:36.916Z,3.9
2023-02-19T08:41:36.925Z,3.9
2023-02-19T08:44:36.926Z,4.2
2023-02-19T08:47:36.936Z,3.7
2023-02-19T08:50:36.930Z,4.1
2023-02-19T08:53:36.977Z,4
2023-02-19T08:56:36.966Z,3.9
2023-02-19T08:59:36.937Z,4
2023-02-19T09:02:36.957Z,4
2023-02-19T09:05:36.942Z,4.1
2023-02-19T09:08:36.954Z,3.5
2023-02-19T09:11:36.955Z,3.3
2023-02-19T09:14:36.966Z,3.6
2023-02-19T09:17:36.973Z,3.3
2023-02-19T09:20:36.983Z,3.3
2023-02-19T09:23:36.996Z,3
2023-02-19T09:26:38.567Z,3.6
2023-02-19T09:29:36.995Z,3.4
2023-02-19T09:32:36.998Z,3.4
2023-02-19T09:35:36.985Z,3.5
2023-02-19T09:38:36.991Z,3.3
2023-02-19T09:41:36.996Z,3.2
2023-02-19T09:44:37.004Z,3.2
2023-02-19T09:47:37.013Z,2.8
2023-02-19T09:50:37.015Z,2.8
2023-02-19T09:53:37.017Z,2.9
2023-02-19T09:56:37.031Z,2.9
2023-02-19T09:59:37.040Z,2.6
2023-02-19T10:02:37.042Z,2.5
2023-02-19T10:05:37.035Z,2.6
2023-02-19T10:08:37.037Z,2.3
2023-02-19T10:11:37.033Z,2.2
2023-02-19T10:14:37.040Z,1.9
2023-02-19T10:17:37.059Z,2.3
2023-02-19T10:20:37.055Z,2.2
2023-02-19T10:23:37.056Z,1.8
2023-02-19T10:26:37.061Z,1.8
2023-02-19T10:29:37.065Z,1.8
2023-02-19T10:32:37.081Z,1.7
2023-02-19T10:35:37.076Z,1.9
2023-02-19T10:38:37.084Z,1.9
2023-02-19T10:41:37.090Z,1.5
2023-02-19T10:44:37.090Z,1.5
2023-02-19T10:47:37.110Z,1.6
2023-02-19T10:50:37.101Z,1.8
2023-02-19T10:53:37.103Z,1.7
2023-02-19T10:56:37.101Z,1.8
2023-02-19T10:59:37.113Z,1.7
2023-02-19T11:02:37.162Z,1.7
2023-02-19T11:05:37.126Z,1.8
2023-02-19T11:08:37.129Z,1.8
2023-02-19T11:11:37.129Z,1.6
2023-02-19T11:14:37.132Z,2
2023-02-19T11:17:37.151Z,1.6
2023-02-19T11:20:37.139Z,1.5
2023-02-19T11:23:37.142Z,1.5
2023-02-19T11:26:37.153Z,1.4
2023-02-19T11:29:37.171Z,1.9
2023-02-19T11:32:37.165Z,1.7
2023-02-19T11:35:37.160Z,1.6
2023-02-19T11:38:37.167Z,1.8
2023-02-19T11:41:37.274Z,1.5
2023-02-19T11:44:37.286Z,1.6
2023-02-19T11:47:37.206Z,1.4
2023-02-19T11:50:37.191Z,1.5
2023-02-19T11:53:37.279Z,1.7
2023-02-19T11:56:37.251Z,1.6
2023-02-19T11:59:37.215Z,1.7
2023-02-19T12:02:37.227Z,1.1
2023-02-19T12:05:37.211Z,1
2023-02-19T12:08:37.220Z,1.4
2023-02-19T12:11:37.211Z,1.4
2023-02-19T12:14:37.221Z,1.4
2023-02-19T12:17:37.234Z,1.2
2023-02-19T12:20:37.237Z,1
2023-02-19T12:23:37.228Z,1.3
2023-02-19T12:26:37.239Z,1.2
2023-02-19T12:29:37.237Z,1.5
2023-02-19T12:32:37.245Z,1.1
2023-02-19T12:35:37.248Z,1.1
2023-02-19T12:38:37.252Z,0.9
2023-02-19T12:41:37.272Z,1.1
2023-02-19T12:44:37.257Z,1
2023-02-19T12:47:37.270Z,1.1
2023-02-19T12:50:37.263Z,1.1
2023-02-19T12:53:37.291Z,1.3
2023-02-19T12:56:37.274Z,1.1
2023-02-19T12:59:37.279Z,1.2
2023-02-19T13:02:37.388Z,1.1
2023-02-19T13:05:37.303Z,1.3
2023-02-19T13:08:39.524Z,1.1
2023-02-19T13:11:37.372Z,1.2
2023-02-19T13:14:37.308Z,1.2
2023-02-19T13:17:37.329Z,1.1
2023-02-19T13:20:37.325Z,0.9
2023-02-19T13:23:37.326Z,1
2023-02-19T13:26:37.339Z,1.1
2023-02-19T13:29:37.335Z,1.1
2023-02-19T13:32:37.346Z,1.1
2023-02-19T13:35:37.337Z,1
2023-02-19T13:38:37.342Z,0.9
2023-02-19T13:41:37.340Z,1.1
2023-02-19T13:44:37.357Z,1.1
2023-02-19T13:47:37.361Z,1.1
2023-02-19T13:50:37.366Z,0.9
2023-02-19T13:53:37.368Z,1.1
2023-02-19T13:56:37.386Z,1.2
2023-02-19T13:59:37.376Z,1
2023-02-19T14:02:37.448Z,0.9
2023-02-19T14:05:37.384Z,1.1
2023-02-19T14:08:37.382Z,1.4
2023-02-19T14:11:37.387Z,1
2023-02-19T14:14:37.400Z,1.1
2023-02-19T14:17:37.408Z,1.2
2023-02-19T14:20:37.429Z,0.9
2023-02-19T14:23:37.411Z,1
2023-02-19T14:26:37.420Z,0.8
2023-02-19T14:29:37.421Z,1
2023-02-19T14:32:37.435Z,0.9
2023-02-19T14:35:37.429Z,0.9
2023-02-19T14:38:37.441Z,0.9
2023-02-19T14:41:37.439Z,1
2023-02-19T14:44:37.440Z,1
2023-02-19T14:47:37.466Z,0.9
2023-02-19T14:50:37.454Z,1
2023-02-19T14:53:37.455Z,1
2023-02-19T14:56:37.466Z,0.9
2023-02-19T14:59:37.470Z,0.8
2023-02-19T15:02:37.488Z,0.9
2023-02-19T15:05:37.478Z,0.7
2023-02-19T15:08:37.483Z,0.9
2023-02-19T15:11:37.483Z,0.9
2023-02-19T15:14:37.491Z,0.8
2023-02-19T15:17:37.504Z,1
2023-02-19T15:20:37.499Z,0.9
2023-02-19T15:23:37.504Z,0.8
2023-02-19T15:26:37.507Z,0.7
2023-02-19T15:29:37.515Z,0.8
2023-02-19T15:32:37.534Z,0.8
2023-02-19T15:35:37.537Z,0.8
2023-02-19T15:38:37.536Z,0.8
2023-02-19T15:41:37.530Z,0.8
2023-02-19T15:44:37.541Z,0.9
2023-02-19T15:47:37.568Z,0.8
2023-02-19T15:50:37.549Z,0.8
2023-02-19T15:53:37.554Z,0.8
2023-02-19T15:56:37.558Z,0.7
2023-02-19T15:59:37.566Z,0.7
2023-02-19T16:02:37.592Z,0.7
2023-02-19T16:05:37.570Z,0.8
2023-02-19T16:08:37.581Z,1
2023-02-19T16:11:37.580Z,1
2023-02-19T16:14:37.583Z,0.8
2023-02-19T16:17:37.599Z,0.8
2023-02-19T16:20:37.587Z,0.8
2023-02-19T16:23:37.605Z,0.8
2023-02-19T16:26:37.598Z,1.1
2023-02-19T16:29:37.608Z,1
2023-02-19T16:32:37.618Z,0.9
2023-02-19T16:35:37.620Z,0.8
2023-02-19T16:38:37.616Z,1.1
2023-02-19T16:41:37.627Z,1.1
2023-02-19T16:44:37.632Z,1.2
2023-02-19T16:47:37.645Z,1.1
2023-02-19T16:50:37.650Z,0.8
2023-02-19T16:53:37.644Z,1.2
2023-02-19T16:56:37.665Z,1
2023-02-19T16:59:37.652Z,1.2
2023-02-19T17:02:37.868Z,1.2
2023-02-19T17:05:37.660Z,1.3
2023-02-19T17:08:37.668Z,1.3
2023-02-19T17:11:37.906Z,1.2
2023-02-19T17:14:37.673Z,1.2
2023-02-19T17:17:37.697Z,1.3
2023-02-19T17:20:37.682Z,1.2
2023-02-19T17:23:37.690Z,1.3
2023-02-19T17:26:37.689Z,1.3
2023-02-19T17:29:37.691Z,1.4
2023-02-19T17:32:37.743Z,1.7
2023-02-19T17:35:37.705Z,1.5
2023-02-19T17:38:37.712Z,2.4
2023-02-19T17:41:37.711Z,2.4
2023-02-19T17:44:37.722Z,2.4
2023-02-19T17:47:37.726Z,1.9
2023-02-19T17:50:37.724Z,1.8
2023-02-19T17:53:37.735Z,1.8
2023-02-19T17:56:37.738Z,1.8
2023-02-19T17:59:37.737Z,1.8
2023-02-19T18:02:37.768Z,2.2
2023-02-19T18:05:37.748Z,2.6
2023-02-19T18:08:37.755Z,2.6
2023-02-19T18:11:37.767Z,1.9
2023-02-19T18:14:37.759Z,1.7
2023-02-19T18:17:37.776Z,1.6
2023-02-19T18:20:37.768Z,1.6
2023-02-19T18:23:37.777Z,2
2023-02-19T18:26:37.815Z,1.8
2023-02-19T18:29:37.793Z,2.5
2023-02-19T18:32:37.801Z,2.6
2023-02-19T18:35:37.791Z,3.1
2023-02-19T18:38:37.928Z,2.9
2023-02-19T18:41:37.802Z,2.7
2023-02-19T18:44:37.810Z,2.4
2023-02-19T18:47:37.827Z,2.4
2023-02-19T18:50:37.839Z,2.7
2023-02-19T18:53:37.838Z,2.4
2023-02-19T18:56:37.836Z,2.9
2023-02-19T18:59:37.839Z,3.2
2023-02-19T19:02:48.557Z,2.9
2023-02-19T19:05:37.858Z,2.7
2023-02-19T19:08:37.850Z,2.9
2023-02-19T19:11:37.999Z,2.8
2023-02-19T19:14:37.857Z,3.3
2023-02-19T19:17:37.879Z,3.2
2023-02-19T19:20:38.006Z,3.2
2023-02-19T19:23:37.887Z,4
2023-02-19T19:26:37.879Z,4.9
2023-02-19T19:29:37.893Z,5
2023-02-19T19:32:37.914Z,4.2
2023-02-19T19:35:37.907Z,4.5
2023-02-19T19:38:37.898Z,4.6
2023-02-19T19:41:37.913Z,4.9
2023-02-19T19:44:37.906Z,4.8
2023-02-19T19:47:37.946Z,5
2023-02-19T19:50:37.914Z,5.2
2023-02-19T19:53:37.921Z,5.2
2023-02-19T19:56:37.931Z,6.5
2023-02-19T19:59:37.926Z,8.4
2023-02-19T20:02:38.016Z,9.3
2023-02-19T20:05:37.937Z,6.6
2023-02-19T20:08:37.956Z,6.1
2023-02-19T20:11:37.942Z,6.9
2023-02-19T20:14:37.959Z,6.3
2023-02-19T20:17:37.953Z,6.7
2023-02-19T20:20:37.956Z,7.2
2023-02-19T20:23:37.960Z,6.9
2023-02-19T20:26:37.965Z,6.5
2023-02-19T20:29:37.965Z,6.7
2023-02-19T20:32:37.973Z,6.8
2023-02-19T20:35:37.976Z,6.8
2023-02-19T20:38:37.978Z,7.1
2023-02-19T20:41:37.987Z,7.2
2023-02-19T20:44:37.989Z,6.8
2023-02-19T20:47:37.993Z,8.2
2023-02-19T20:50:37.995Z,7.2
2023-02-19T20:53:37.994Z,8.1
2023-02-19T20:56:38.009Z,7.2
2023-02-19T20:59:38.000Z,7.2
2023-02-19T21:02:38.047Z,7
2023-02-19T21:05:38.402Z,6.8
2023-02-19T21:08:38.013Z,6.9
2023-02-19T21:11:38.027Z,7.2
2023-02-19T21:14:38.020Z,6.8
2023-02-19T21:17:38.021Z,7.2
2023-02-19T21:20:38.026Z,7.3
2023-02-19T21:23:38.024Z,7.2
2023-02-19T21:26:38.052Z,7.3
2023-02-19T21:29:38.034Z,7.2
2023-02-19T21:32:38.031Z,6.9
2023-02-19T21:35:38.032Z,7.2
2023-02-19T21:38:38.035Z,7
2023-02-19T21:41:38.030Z,7.2
2023-02-19T21:44:38.044Z,7.2
2023-02-19T21:47:38.042Z,7.4
2023-02-19T21:50:38.037Z,7.1
2023-02-19T21:53:38.038Z,6.9
2023-02-19T21:56:38.050Z,7.3
2023-02-19T21:59:38.049Z,6.8
2023-02-19T22:02:38.065Z,6.6
2023-02-19T22:05:38.044Z,6.1
2023-02-19T22:08:38.059Z,6.1
2023-02-19T22:11:38.073Z,6
2023-02-19T22:14:38.097Z,5.8
2023-02-19T22:17:38.110Z,5.7
2023-02-19T22:20:38.120Z,6
2023-02-19T22:23:38.125Z,5.8
2023-02-19T22:26:38.155Z,5.5
2023-02-19T22:29:38.161Z,5.3
2023-02-19T22:32:38.320Z,5.3
2023-02-19T22:35:38.183Z,5.3
2023-02-19T22:38:38.192Z,5.5
2023-02-19T22:41:38.189Z,5.6
2023-02-19T22:44:38.194Z,5.9
2023-02-19T22:47:38.203Z,5.8
2023-02-19T22:50:38.207Z,5.6
2023-02-19T22:53:38.217Z,5.4
2023-02-19T22:56:38.227Z,5.6
2023-02-19T22:59:38.215Z,6.1
2023-02-19T23:02:38.213Z,6.1
2023-02-19T23:05:38.220Z,6.2
2023-02-19T23:08:38.225Z,6.3
2023-02-19T23:11:38.227Z,6.3
2023-02-19T23:14:38.231Z,6.6
2023-02-19T23:17:38.237Z,6.6
2023-02-19T23:20:38.236Z,6.7
2023-02-19T23:23:38.239Z,7.1
2023-02-19T23:26:38.250Z,6.8
2023-02-19T23:29:38.253Z,6.8
2023-02-19T23:32:38.254Z,6.9
2023-02-19T23:35:38.255Z,7.1
2023-02-19T23:38:38.258Z,7.2
2023-02-19T23:41:38.256Z,6.8
2023-02-19T23:44:38.263Z,7.1
2023-02-19T23:47:38.265Z,7.1
2023-02-19T23:50:38.266Z,6.9
2023-02-19T23:53:38.272Z,7.1
2023-02-19T23:56:38.288Z,7.3
2023-02-19T23:59:38.276Z,7.3
